Time;durP1;ratioP1;P1;durP2;ratioP2;P2;SDS_P1;SDS_P2;PMS_P1;PMS_P2;Temp;Humidity;BMP_temperature;BMP_pressure;BME280_temperature;BME280_humidity;BME280_pressure;Samples;Min_cycle;Max_cycle;Signal;HPM_P1;HPM_P2
2021/06/25 00:01:58;;;;;;;2.60;1.23;;;;;;;;;;5016563;28;20177;-75
2021/06/25 00:05:03;;;;;;;1.27;1.10;;;;;;;;;;5015957;28;20205;-76
2021/06/25 00:08:07;;;;;;;2.17;1.30;;;;;;;;;;5016007;28;20217;-76
2021/06/25 00:11:12;;;;;;;3.77;1.70;;;;;;;;;;5016145;28;20656;-76
2021/06/25 00:14:21;;;;;;;1.20;1.10;;;;;;;;;;5004195;28;20178;-75
2021/06/25 00:17:25;;;;;;;1.83;1.47;;;;;;;;;;5015909;28;20213;-75
2021/06/25 00:20:29;;;;;;;1.93;1.30;;;;;;;;;;5014175;28;20209;-75
2021/06/25 00:23:33;;;;;;;2.17;1.50;;;;;;;;;;5015349;28;20201;-76
2021/06/25 00:26:37;;;;;;;1.80;1.30;;;;;;;;;;5014663;28;20209;-75
2021/06/25 00:29:42;;;;;;;2.83;1.40;;;;;;;;;;5015208;28;20205;-75
2021/06/25 00:32:46;;;;;;;2.67;1.40;;;;;;;;;;4992313;28;20521;-75
2021/06/25 00:35:50;;;;;;;1.73;1.30;;;;;;;;;;5014323;28;20193;-75
2021/06/25 00:38:55;;;;;;;3.27;1.30;;;;;;;;;;5015336;28;20181;-75
2021/06/25 00:41:59;;;;;;;1.97;1.57;;;;;;;;;;5014505;28;20189;-75
2021/06/25 00:45:12;;;;;;;2.27;1.50;;;;;;;;;;5015009;28;20197;-75
2021/06/25 00:48:16;;;;;;;2.00;1.33;;;;;;;;;;5003071;28;20221;-75
2021/06/25 00:51:20;;;;;;;2.27;1.53;;;;;;;;;;5015346;28;20666;-76
2021/06/25 00:54:25;;;;;;;2.90;1.30;;;;;;;;;;5014977;28;20178;-76
2021/06/25 00:57:28;;;;;;;3.87;1.50;;;;;;;;;;5014728;28;20217;-76
2021/06/25 01:00:32;;;;;;;2.90;1.30;;;;;;;;;;5014684;28;20181;-76
2021/06/25 01:03:38;;;;;;;1.70;1.00;;;;;;;;;;5014909;28;20177;-76
2021/06/25 01:06:42;;;;;;;6.60;1.43;;;;;;;;;;5013875;28;20229;-75
2021/06/25 01:09:47;;;;;;;2.43;1.10;;;;;;;;;;5014777;28;20189;-76
2021/06/25 01:12:51;;;;;;;2.20;1.10;;;;;;;;;;5014724;28;20181;-76
2021/06/25 01:15:55;;;;;;;1.30;1.20;;;;;;;;;;5002655;28;20620;-76
2021/06/25 01:18:59;;;;;;;3.23;1.37;;;;;;;;;;5014360;28;20209;-76
2021/06/25 01:22:04;;;;;;;3.47;1.23;;;;;;;;;;5014556;28;20177;-76
2021/06/25 01:25:17;;;;;;;2.13;1.43;;;;;;;;;;5014696;28;20181;-76
2021/06/25 01:28:21;;;;;;;2.47;1.33;;;;;;;;;;5015291;28;20221;-75
2021/06/25 01:31:25;;;;;;;1.73;1.10;;;;;;;;;;5013553;28;20197;-76
2021/06/25 01:34:30;;;;;;;2.83;1.40;;;;;;;;;;5013637;28;20640;-75
2021/06/25 01:37:34;;;;;;;4.50;1.40;;;;;;;;;;5014351;28;20558;-76
2021/06/25 01:40:41;;;;;;;1.97;1.50;;;;;;;;;;5002122;28;20186;-76
2021/06/25 01:43:48;;;;;;;1.70;1.60;;;;;;;;;;5013429;28;20522;-76
2021/06/25 01:46:52;;;;;;;2.20;1.90;;;;;;;;;;5014257;28;20225;-76
2021/06/25 01:49:56;;;;;;;2.60;1.63;;;;;;;;;;5013046;28;20181;-76
2021/06/25 01:53:02;;;;;;;4.27;1.50;;;;;;;;;;5014305;28;20182;-76
2021/06/25 01:56:06;;;;;;;4.73;1.90;;;;;;;;;;5001759;28;20181;-75
2021/06/25 01:59:11;;;;;;;2.30;1.93;;;;;;;;;;5013183;28;20181;-76
2021/06/25 02:02:15;;;;;;;2.87;2.13;;;;;;;;;;5013131;28;20185;-75
2021/06/25 02:05:19;;;;;;;2.57;2.37;;;;;;;;;;5013013;28;20652;-76
2021/06/25 02:08:24;;;;;;;3.60;2.70;;;;;;;;;;5001938;28;20225;-75
2021/06/25 02:11:28;;;;;;;3.43;2.73;;;;;;;;;;5012778;28;20196;-76
2021/06/25 02:14:32;;;;;;;6.23;2.87;;;;;;;;;;5012968;28;20625;-76
2021/06/25 02:17:37;;;;;;;3.40;2.40;;;;;;;;;;5013477;28;20220;-76
2021/06/25 02:20:42;;;;;;;7.53;2.70;;;;;;;;;;5013666;28;20212;-76
2021/06/25 02:23:46;;;;;;;2.60;2.40;;;;;;;;;;5013130;28;20510;-75
2021/06/25 02:26:50;;;;;;;3.90;2.80;;;;;;;;;;5012724;28;20691;-76
2021/06/25 02:29:55;;;;;;;4.10;2.37;;;;;;;;;;5013557;28;20177;-75
2021/06/25 02:32:59;;;;;;;2.70;2.20;;;;;;;;;;5013733;28;20181;-75
2021/06/25 02:36:04;;;;;;;3.87;1.87;;;;;;;;;;5000087;28;20193;-75
2021/06/25 02:39:09;;;;;;;2.90;1.73;;;;;;;;;;5012719;28;20178;-76
2021/06/25 02:42:14;;;;;;;2.10;1.83;;;;;;;;;;5013123;28;20201;-76
2021/06/25 02:45:18;;;;;;;2.00;1.43;;;;;;;;;;5012413;28;20683;-75
2021/06/25 02:48:22;;;;;;;1.63;1.50;;;;;;;;;;5001165;28;20213;-75
2021/06/25 02:51:27;;;;;;;1.77;1.60;;;;;;;;;;5013658;28;20514;-75
2021/06/25 02:54:31;;;;;;;4.23;1.57;;;;;;;;;;5012553;28;20182;-76
2021/06/25 02:57:36;;;;;;;1.67;1.50;;;;;;;;;;5012368;28;20216;-76
2021/06/25 03:00:40;;;;;;;2.40;1.50;;;;;;;;;;5013377;28;20185;-75
2021/06/25 03:03:44;;;;;;;4.53;1.40;;;;;;;;;;5012409;28;20186;-76
2021/06/25 03:06:48;;;;;;;3.13;1.77;;;;;;;;;;5012328;28;20233;-75
2021/06/25 03:09:52;;;;;;;1.97;1.63;;;;;;;;;;5008548;28;20190;-75
2021/06/25 03:12:57;;;;;;;1.60;1.43;;;;;;;;;;5018799;28;20201;-77
2021/06/25 03:16:02;;;;;;;2.40;1.43;;;;;;;;;;4992513;28;20198;-77
2021/06/25 03:19:06;;;;;;;1.20;1.10;;;;;;;;;;5015282;23;20229;-74
2021/06/25 03:22:10;;;;;;;1.53;1.30;;;;;;;;;;5008680;28;20197;-75
2021/06/25 03:25:14;;;;;;;1.70;1.23;;;;;;;;;;5017101;28;20197;-75
2021/06/25 03:28:19;;;;;;;1.40;1.30;;;;;;;;;;5011478;28;20214;-75
2021/06/25 03:31:23;;;;;;;6.63;1.70;;;;;;;;;;5019704;28;20181;-77
2021/06/25 03:34:27;;;;;;;2.07;1.27;;;;;;;;;;5004625;28;20668;-76
2021/06/25 03:37:32;;;;;;;1.87;1.10;;;;;;;;;;4982831;28;20215;-75
2021/06/25 03:40:37;;;;;;;1.60;1.50;;;;;;;;;;5000553;28;20178;-75
2021/06/25 03:43:41;;;;;;;2.47;1.37;;;;;;;;;;5001282;28;20190;-75
2021/06/25 03:46:46;;;;;;;6.00;1.40;;;;;;;;;;5017935;28;20233;-75
2021/06/25 03:49:50;;;;;;;4.20;1.43;;;;;;;;;;5019736;28;20182;-76
2021/06/25 03:52:55;;;;;;;3.43;1.50;;;;;;;;;;5018671;28;20178;-75
2021/06/25 03:56:09;;;;;;;3.37;1.50;;;;;;;;;;5019672;28;20181;-75
2021/06/25 03:59:13;;;;;;;2.30;1.60;;;;;;;;;;5019452;28;20190;-76
2021/06/25 04:02:17;;;;;;;2.00;1.30;;;;;;;;;;5019911;28;20201;-76
2021/06/25 04:05:22;;;;;;;3.90;1.37;;;;;;;;;;5017728;28;20194;-75
2021/06/25 04:08:28;;;;;;;3.70;1.33;;;;;;;;;;5019137;28;20213;-75
2021/06/25 04:11:33;;;;;;;3.53;1.57;;;;;;;;;;5020319;28;20182;-75
2021/06/25 04:14:37;;;;;;;1.50;1.40;;;;;;;;;;5020200;28;20201;-75
2021/06/25 04:17:41;;;;;;;4.33;1.50;;;;;;;;;;5019709;28;20217;-75
2021/06/25 04:20:46;;;;;;;5.17;1.70;;;;;;;;;;5019862;28;20173;-76
2021/06/25 04:23:50;;;;;;;1.87;1.30;;;;;;;;;;5019637;28;20185;-75
2021/06/25 04:26:55;;;;;;;2.17;1.40;;;;;;;;;;5019252;28;20229;-74
2021/06/25 04:29:59;;;;;;;2.27;1.33;;;;;;;;;;5018914;28;20182;-76
2021/06/25 04:33:04;;;;;;;3.27;1.40;;;;;;;;;;5020093;28;20198;-75
2021/06/25 04:36:08;;;;;;;1.53;1.43;;;;;;;;;;5015455;28;20201;-74
2021/06/25 04:39:12;;;;;;;2.47;1.57;;;;;;;;;;5015714;28;20177;-74
2021/06/25 04:42:16;;;;;;;1.70;1.33;;;;;;;;;;5015422;28;20185;-75
2021/06/25 04:45:21;;;;;;;2.17;1.63;;;;;;;;;;5015241;28;20182;-74
2021/06/25 04:48:26;;;;;;;3.20;1.70;;;;;;;;;;5014774;28;20233;-74
2021/06/25 04:51:30;;;;;;;3.03;1.80;;;;;;;;;;5014862;28;20189;-75
2021/06/25 04:54:35;;;;;;;2.00;1.80;;;;;;;;;;5014361;28;20629;-74
2021/06/25 04:57:39;;;;;;;4.63;2.07;;;;;;;;;;5014338;28;20209;-74
2021/06/25 05:00:45;;;;;;;2.40;2.20;;;;;;;;;;5014220;28;20174;-75
2021/06/25 05:03:48;;;;;;;2.37;1.60;;;;;;;;;;5014998;28;20186;-75
2021/06/25 05:06:53;;;;;;;4.77;2.17;;;;;;;;;;5014587;28;20233;-74
2021/06/25 05:09:57;;;;;;;2.77;2.03;;;;;;;;;;5014855;28;20185;-74
2021/06/25 05:13:02;;;;;;;2.03;1.57;;;;;;;;;;5014551;28;20190;-74
2021/06/25 05:16:06;;;;;;;2.07;1.87;;;;;;;;;;5014837;28;20185;-74
2021/06/25 05:19:10;;;;;;;2.73;1.80;;;;;;;;;;5014447;28;20204;-74
2021/06/25 05:22:14;;;;;;;2.30;2.10;;;;;;;;;;5013831;28;20624;-74
2021/06/25 05:25:19;;;;;;;2.80;2.60;;;;;;;;;;5014567;28;20539;-74
2021/06/25 05:28:23;;;;;;;3.67;2.27;;;;;;;;;;5013958;28;20687;-74
2021/06/25 05:31:28;;;;;;;5.23;2.20;;;;;;;;;;5014770;28;20181;-74
2021/06/25 05:34:32;;;;;;;2.10;1.90;;;;;;;;;;5014203;28;20177;-74
2021/06/25 05:37:36;;;;;;;3.17;2.40;;;;;;;;;;5014528;28;20209;-74
2021/06/25 05:40:41;;;;;;;2.30;2.10;;;;;;;;;;5002071;28;20529;-74
2021/06/25 05:43:46;;;;;;;3.07;2.23;;;;;;;;;;5014131;28;20521;-74
2021/06/25 05:46:50;;;;;;;4.27;2.10;;;;;;;;;;5013796;28;20229;-74
2021/06/25 05:49:54;;;;;;;5.30;2.27;;;;;;;;;;5013824;28;20185;-74
2021/06/25 05:52:58;;;;;;;2.40;2.20;;;;;;;;;;5014071;28;20181;-74
2021/06/25 05:56:04;;;;;;;2.00;1.90;;;;;;;;;;5013908;28;20517;-74
2021/06/25 05:59:09;;;;;;;2.40;2.20;;;;;;;;;;5014008;28;20169;-74
2021/06/25 06:02:13;;;;;;;2.53;2.33;;;;;;;;;;5013927;28;20185;-74
2021/06/25 06:05:17;;;;;;;3.20;2.30;;;;;;;;;;5013137;28;20181;-74
2021/06/25 06:08:21;;;;;;;6.10;2.40;;;;;;;;;;5013401;28;20236;-74
2021/06/25 06:11:25;;;;;;;2.30;2.10;;;;;;;;;;5013552;28;20193;-74
2021/06/25 06:14:30;;;;;;;2.67;2.13;;;;;;;;;;5014069;28;20177;-74
2021/06/25 06:17:42;;;;;;;2.90;2.30;;;;;;;;;;5013620;28;20209;-75
2021/06/25 06:20:47;;;;;;;2.47;2.27;;;;;;;;;;5013580;28;20177;-74
2021/06/25 06:34:08;;;;;;;2.57;2.20;;;;;;;;;;5013537;28;20182;-74
2021/06/25 06:37:17;;;;;;;3.93;2.20;;;;;;;;;;5013762;28;20209;-74
2021/06/25 06:40:21;;;;;;;2.73;2.03;;;;;;;;;;5013478;28;20189;-74
2021/06/25 06:43:25;;;;;;;2.40;1.97;;;;;;;;;;5013766;28;20181;-74
2021/06/25 06:46:30;;;;;;;2.80;2.07;;;;;;;;;;5013696;28;20186;-74
2021/06/25 06:49:34;;;;;;;2.90;1.90;;;;;;;;;;5013493;28;20182;-74
2021/06/25 06:52:47;;;;;;;4.07;1.80;;;;;;;;;;5012612;28;20185;-75
2021/06/25 06:55:51;;;;;;;2.60;1.60;;;;;;;;;;5013811;28;20190;-74
2021/06/25 06:58:56;;;;;;;6.03;1.77;;;;;;;;;;5017536;28;20177;-74
2021/06/25 07:02:00;;;;;;;1.57;1.40;;;;;;;;;;5016670;28;20185;-75
2021/06/25 07:05:06;;;;;;;2.10;1.90;;;;;;;;;;5017452;28;20624;-75
2021/06/25 07:08:10;;;;;;;2.10;1.90;;;;;;;;;;5016147;28;20229;-75
2021/06/25 07:11:15;;;;;;;1.83;1.70;;;;;;;;;;5016856;28;20197;-75
2021/06/25 07:14:19;;;;;;;2.07;1.73;;;;;;;;;;5016206;28;20178;-74
2021/06/25 07:17:23;;;;;;;2.83;1.80;;;;;;;;;;5016241;28;20209;-74
2021/06/25 07:20:27;;;;;;;3.63;1.80;;;;;;;;;;5016885;28;20182;-74
2021/06/25 07:23:32;;;;;;;3.70;2.13;;;;;;;;;;5016867;28;20189;-75
2021/06/25 07:26:36;;;;;;;2.00;1.80;;;;;;;;;;5016471;28;20182;-74
2021/06/25 07:29:40;;;;;;;2.67;1.70;;;;;;;;;;5016434;28;20185;-75
2021/06/25 07:32:44;;;;;;;3.70;1.67;;;;;;;;;;5015824;28;20197;-75
2021/06/25 07:35:48;;;;;;;1.60;1.50;;;;;;;;;;5016808;28;20656;-75
2021/06/25 07:38:53;;;;;;;2.10;1.67;;;;;;;;;;5016595;28;20182;-75
2021/06/25 07:41:57;;;;;;;3.43;1.90;;;;;;;;;;5016323;28;20181;-75
2021/06/25 07:45:07;;;;;;;1.97;1.77;;;;;;;;;;5015893;28;20613;-75
2021/06/25 07:48:11;;;;;;;2.93;1.67;;;;;;;;;;5015314;28;20229;-75
2021/06/25 07:51:15;;;;;;;1.37;1.23;;;;;;;;;;5015448;28;20656;-75
2021/06/25 07:54:20;;;;;;;2.03;1.83;;;;;;;;;;5015513;28;20185;-75
2021/06/25 07:57:24;;;;;;;2.03;1.50;;;;;;;;;;5015857;28;20217;-75
2021/06/25 08:00:29;;;;;;;3.93;1.57;;;;;;;;;;5015372;28;20190;-75
2021/06/25 08:03:33;;;;;;;1.30;1.20;;;;;;;;;;5016087;28;20182;-75
2021/06/25 08:06:37;;;;;;;3.83;1.37;;;;;;;;;;5015935;28;20182;-75
2021/06/25 08:09:42;;;;;;;2.17;1.40;;;;;;;;;;5015913;28;20200;-75
2021/06/25 08:12:47;;;;;;;4.20;1.30;;;;;;;;;;5016139;28;20193;-75
2021/06/25 08:15:51;;;;;;;1.47;1.20;;;;;;;;;;5015097;28;20628;-75
2021/06/25 08:18:58;;;;;;;1.50;1.40;;;;;;;;;;5015450;28;20204;-75
2021/06/25 08:22:03;;;;;;;3.70;2.10;;;;;;;;;;5014937;28;20189;-75
2021/06/25 08:25:08;;;;;;;2.23;1.50;;;;;;;;;;5015919;28;20629;-75
2021/06/25 08:28:12;;;;;;;1.73;1.50;;;;;;;;;;5015650;28;20229;-75
2021/06/25 08:31:16;;;;;;;1.73;1.37;;;;;;;;;;5015643;28;20185;-75
2021/06/25 08:34:21;;;;;;;1.90;1.40;;;;;;;;;;5015923;28;20514;-74
2021/06/25 08:37:25;;;;;;;1.80;1.50;;;;;;;;;;5015321;28;20220;-75
2021/06/25 08:40:29;;;;;;;1.40;1.30;;;;;;;;;;5015335;28;20173;-75
2021/06/25 08:43:34;;;;;;;1.73;1.20;;;;;;;;;;5014568;28;20193;-75
2021/06/25 08:46:43;;;;;;;1.23;1.13;;;;;;;;;;5014421;28;20197;-75
2021/06/25 08:49:50;;;;;;;2.37;1.30;;;;;;;;;;5014118;28;20641;-75
2021/06/25 08:52:54;;;;;;;1.17;0.93;;;;;;;;;;5015167;28;20181;-75
2021/06/25 08:55:59;;;;;;;2.13;1.13;;;;;;;;;;5015010;28;20177;-75
2021/06/25 08:59:03;;;;;;;4.27;1.37;;;;;;;;;;5015064;28;20182;-75
2021/06/25 09:02:07;;;;;;;1.10;1.00;;;;;;;;;;5015109;28;20177;-76
2021/06/25 09:05:20;;;;;;;2.60;1.13;;;;;;;;;;5003372;28;20643;-76
2021/06/25 09:08:27;;;;;;;1.20;1.10;;;;;;;;;;5014511;28;20680;-76
2021/06/25 09:11:33;;;;;;;1.50;1.27;;;;;;;;;;5014588;28;20185;-75
2021/06/25 09:15:14;;;;;;;1.70;1.17;;;;;;;;;;5013731;28;20177;-76
2021/06/25 09:18:18;;;;;;;2.80;1.03;;;;;;;;;;5013651;28;20217;-76
2021/06/25 09:21:23;;;;;;;1.90;1.30;;;;;;;;;;4997099;22;20242;-74
2021/06/25 09:24:28;;;;;;;1.50;1.40;;;;;;;;;;4975861;28;20183;-75
2021/06/25 09:27:34;;;;;;;1.50;1.03;;;;;;;;;;4975752;28;20693;-75
2021/06/25 09:30:42;;;;;;;1.20;1.10;;;;;;;;;;4974684;28;20180;-75
2021/06/25 09:33:55;;;;;;;2.63;1.50;;;;;;;;;;4975496;28;20193;-75
2021/06/25 09:37:01;;;;;;;1.80;1.60;;;;;;;;;;4975251;28;20225;-75
2021/06/25 09:40:08;;;;;;;3.40;2.10;;;;;;;;;;4974476;28;20174;-75
2021/06/25 09:43:13;;;;;;;1.93;1.73;;;;;;;;;;4974203;28;20181;-75
2021/06/25 09:46:43;;;;;;;2.10;1.87;;;;;;;;;;4975356;28;20181;-75
2021/06/25 09:50:05;;;;;;;2.10;1.90;;;;;;;;;;4974919;28;20210;-75
2021/06/25 09:53:10;;;;;;;2.77;1.93;;;;;;;;;;4974566;28;20187;-75
2021/06/25 09:56:24;;;;;;;2.13;1.93;;;;;;;;;;4975154;28;20634;-74
2021/06/25 10:02:37;;;;;;;4.97;2.00;;;;;;;;;;4974584;28;20190;-75
2021/06/25 10:05:42;;;;;;;3.27;2.10;;;;;;;;;;4975004;28;20186;-75
2021/06/25 10:08:48;;;;;;;2.83;2.10;;;;;;;;;;4974693;28;20222;-75
2021/06/25 10:11:53;;;;;;;3.60;2.00;;;;;;;;;;4974496;28;20206;-74
2021/06/25 10:15:01;;;;;;;1.83;1.60;;;;;;;;;;4975061;28;20183;-75
2021/06/25 10:18:05;;;;;;;1.73;1.63;;;;;;;;;;4974719;28;20638;-75
2021/06/25 10:21:16;;;;;;;2.80;1.80;;;;;;;;;;4973593;28;20206;-75
2021/06/25 10:24:21;;;;;;;3.20;1.80;;;;;;;;;;4974881;28;20634;-75
2021/06/25 10:27:27;;;;;;;2.73;1.60;;;;;;;;;;4974795;28;20218;-74
2021/06/25 10:30:31;;;;;;;1.90;1.67;;;;;;;;;;4974085;28;20171;-75
2021/06/25 10:33:37;;;;;;;1.40;1.30;;;;;;;;;;4974583;28;20183;-75
2021/06/25 10:36:41;;;;;;;1.33;1.23;;;;;;;;;;4974457;28;20182;-75
2021/06/25 10:39:45;;;;;;;1.37;1.20;;;;;;;;;;4973773;28;20184;-75
2021/06/25 10:42:50;;;;;;;1.53;1.10;;;;;;;;;;4973669;28;20182;-75
2021/06/25 10:45:54;;;;;;;1.53;1.20;;;;;;;;;;4973898;28;20180;-75
2021/06/25 10:49:12;;;;;;;1.00;0.90;;;;;;;;;;4974878;28;20208;-75
2021/06/25 10:52:17;;;;;;;4.13;1.13;;;;;;;;;;4973376;28;20647;-75
2021/06/25 10:55:24;;;;;;;2.40;1.30;;;;;;;;;;4974551;28;20187;-75
2021/06/25 10:58:28;;;;;;;2.30;1.10;;;;;;;;;;4974541;28;20217;-76
2021/06/25 11:01:47;;;;;;;3.60;1.33;;;;;;;;;;4974320;28;20179;-76
2021/06/25 11:04:51;;;;;;;2.67;1.10;;;;;;;;;;4973166;28;20200;-76
2021/06/25 11:08:00;;;;;;;1.43;1.20;;;;;;;;;;4974276;28;20219;-76
2021/06/25 11:11:04;;;;;;;1.80;1.47;;;;;;;;;;4974111;28;20175;-76
2021/06/25 11:14:28;;;;;;;2.43;1.83;;;;;;;;;;4973690;28;20202;-75
2021/06/25 11:17:55;;;;;;;2.17;1.40;;;;;;;;;;4973597;28;20215;-75
2021/06/25 11:21:05;;;;;;;2.37;1.43;;;;;;;;;;4973917;28;20207;-75
2021/06/25 11:24:10;;;;;;;1.77;1.53;;;;;;;;;;4974431;28;20179;-75
2021/06/25 11:27:14;;;;;;;1.50;1.20;;;;;;;;;;4973776;28;20223;-75
2021/06/25 11:30:50;;;;;;;1.90;1.43;;;;;;;;;;4973705;28;20222;-75
2021/06/25 11:33:58;;;;;;;2.17;1.40;;;;;;;;;;4973143;28;20179;-75
2021/06/25 11:37:03;;;;;;;1.67;1.57;;;;;;;;;;4973428;28;20211;-75
2021/06/25 11:40:07;;;;;;;1.57;1.20;;;;;;;;;;4974256;28;20179;-75
2021/06/25 11:43:14;;;;;;;2.70;1.40;;;;;;;;;;4975166;28;20185;-75
2021/06/25 11:46:19;;;;;;;1.30;1.20;;;;;;;;;;4977176;28;20180;-75
2021/06/25 11:49:34;;;;;;;2.60;1.17;;;;;;;;;;4977405;28;20214;-75
2021/06/25 11:52:43;;;;;;;1.20;1.10;;;;;;;;;;4977178;28;20204;-75
2021/06/25 11:55:53;;;;;;;2.67;1.40;;;;;;;;;;4976285;28;20186;-75
2021/06/25 11:59:06;;;;;;;3.78;1.77;;;;;;;;;;4976369;28;20187;-75
2021/06/25 12:02:11;;;;;;;1.50;1.40;;;;;;;;;;4976349;28;20189;-75
2021/06/25 12:05:24;;;;;;;1.40;1.30;;;;;;;;;;4976985;28;20202;-75
2021/06/25 12:08:28;;;;;;;2.27;1.30;;;;;;;;;;4976647;28;20219;-75
2021/06/25 12:11:36;;;;;;;1.60;1.47;;;;;;;;;;4976982;28;20182;-75
2021/06/25 12:14:45;;;;;;;1.60;1.50;;;;;;;;;;4975768;28;20204;-75
2021/06/25 12:17:52;;;;;;;2.40;1.60;;;;;;;;;;4977068;28;20214;-75
2021/06/25 12:21:10;;;;;;;2.50;1.23;;;;;;;;;;4976361;28;20205;-75
2021/06/25 12:24:15;;;;;;;1.23;1.13;;;;;;;;;;4976677;28;20187;-75
2021/06/25 12:27:33;;;;;;;2.13;1.10;;;;;;;;;;4975572;28;20222;-75
2021/06/25 12:30:47;;;;;;;2.13;1.00;;;;;;;;;;4975737;28;20210;-75
2021/06/25 12:34:04;;;;;;;1.20;1.10;;;;;;;;;;4964929;28;20188;-75
2021/06/25 12:37:08;;;;;;;1.10;0.90;;;;;;;;;;4984869;28;20227;-75
2021/06/25 12:40:33;;;;;;;6.53;1.00;;;;;;;;;;4989209;28;20187;-75
2021/06/25 12:43:47;;;;;;;0.63;0.63;;;;;;;;;;4984878;28;20190;-75
2021/06/25 12:47:07;;;;;;;2.10;0.80;;;;;;;;;;4975996;28;20538;-75
2021/06/25 12:50:12;;;;;;;3.43;0.80;;;;;;;;;;4957069;29;20209;-76
2021/06/25 12:53:19;;;;;;;5.13;0.90;;;;;;;;;;4974700;28;20203;-76
2021/06/25 12:56:44;;;;;;;1.13;0.70;;;;;;;;;;4974140;28;20207;-75
2021/06/25 12:59:53;;;;;;;2.40;0.90;;;;;;;;;;4958485;28;20176;-75
2021/06/25 13:02:57;;;;;;;0.87;0.60;;;;;;;;;;4982713;28;20191;-75
2021/06/25 13:06:21;;;;;;;2.27;0.63;;;;;;;;;;4992615;28;20541;-75
2021/06/25 13:09:26;;;;;;;0.70;0.53;;;;;;;;;;4983239;28;20206;-75
2021/06/25 13:12:34;;;;;;;1.93;0.50;;;;;;;;;;4991563;28;20554;-75
2021/06/25 13:15:46;;;;;;;0.63;0.40;;;;;;;;;;4977024;28;20191;-75
2021/06/25 13:18:53;;;;;;;1.00;0.50;;;;;;;;;;4988549;28;20222;-75
2021/06/25 13:22:28;;;;;;;0.60;0.40;;;;;;;;;;4990736;28;20197;-75
2021/06/25 13:25:39;;;;;;;1.63;0.57;;;;;;;;;;4999564;28;20188;-75
2021/06/25 13:28:56;;;;;;;0.57;0.40;;;;;;;;;;4993995;28;20211;-75
2021/06/25 13:32:04;;;;;;;0.63;0.63;;;;;;;;;;4993855;28;20675;-75
2021/06/25 13:35:08;;;;;;;0.30;0.30;;;;;;;;;;4989149;28;20197;-75
2021/06/25 13:38:24;;;;;;;1.10;0.93;;;;;;;;;;4967135;28;20227;-76
2021/06/25 13:41:37;;;;;;;3.63;0.60;;;;;;;;;;4973802;28;20552;-75
2021/06/25 13:44:41;;;;;;;2.60;0.50;;;;;;;;;;4989273;28;20658;-75
2021/06/25 13:47:46;;;;;;;0.93;0.60;;;;;;;;;;4984912;28;20216;-75
2021/06/25 13:51:02;;;;;;;0.70;0.70;;;;;;;;;;4955287;29;20206;-76
2021/06/25 13:54:35;;;;;;;0.70;0.67;;;;;;;;;;4984184;28;20201;-75
2021/06/25 13:57:55;;;;;;;3.30;0.70;;;;;;;;;;4988387;28;20221;-76
2021/06/25 14:01:00;;;;;;;1.27;0.70;;;;;;;;;;4993726;28;20187;-75
2021/06/25 14:04:09;;;;;;;1.37;0.70;;;;;;;;;;4980728;28;20648;-76
2021/06/25 14:07:14;;;;;;;0.97;0.80;;;;;;;;;;4993801;28;20215;-75
2021/06/25 14:10:18;;;;;;;0.80;0.60;;;;;;;;;;4981367;28;20673;-75
2021/06/25 14:13:36;;;;;;;0.80;0.60;;;;;;;;;;4977672;28;20204;-77
2021/06/25 14:16:42;;;;;;;1.07;0.70;;;;;;;;;;4955404;28;20187;-76
2021/06/25 14:19:46;;;;;;;1.10;0.60;;;;;;;;;;4991775;28;20193;-76
2021/06/25 14:22:50;;;;;;;1.70;0.60;;;;;;;;;;4974823;28;20655;-76
2021/06/25 14:25:54;;;;;;;0.73;0.73;;;;;;;;;;4980812;28;20199;-75
2021/06/25 14:28:59;;;;;;;0.87;0.60;;;;;;;;;;4987459;28;20186;-76
2021/06/25 14:32:04;;;;;;;1.10;0.90;;;;;;;;;;4972724;28;20206;-75
2021/06/25 14:35:08;;;;;;;0.77;0.77;;;;;;;;;;4981223;28;20193;-76
2021/06/25 14:38:12;;;;;;;0.80;0.70;;;;;;;;;;4977409;28;20596;-76
2021/06/25 14:41:17;;;;;;;2.70;0.97;;;;;;;;;;4980719;28;20194;-75
2021/06/25 14:44:21;;;;;;;0.93;0.87;;;;;;;;;;4970023;28;20373;-75
2021/06/25 14:47:25;;;;;;;1.10;0.80;;;;;;;;;;4950973;28;20228;-75
2021/06/25 14:50:30;;;;;;;2.30;0.83;;;;;;;;;;4986740;28;20207;-75
2021/06/25 14:53:34;;;;;;;1.10;1.00;;;;;;;;;;4970032;28;20220;-75
2021/06/25 14:56:38;;;;;;;1.27;1.10;;;;;;;;;;4989123;28;20203;-75
2021/06/25 14:59:43;;;;;;;2.20;1.00;;;;;;;;;;4987369;28;20622;-75
2021/06/25 15:02:47;;;;;;;0.70;0.70;;;;;;;;;;4956133;28;20194;-75
2021/06/25 15:05:52;;;;;;;0.70;0.70;;;;;;;;;;4988877;28;20517;-75
2021/06/25 15:08:56;;;;;;;0.70;0.70;;;;;;;;;;4972978;28;20196;-75
2021/06/25 15:12:00;;;;;;;1.00;0.87;;;;;;;;;;4970241;28;20536;-77
2021/06/25 15:15:05;;;;;;;0.70;0.70;;;;;;;;;;4993364;28;20188;-76
2021/06/25 15:18:10;;;;;;;1.30;0.90;;;;;;;;;;4956179;28;20225;-75
2021/06/25 15:21:14;;;;;;;1.43;0.87;;;;;;;;;;4986460;23;20229;-77
2021/06/25 15:24:18;;;;;;;2.07;1.20;;;;;;;;;;4996483;28;20177;-77
2021/06/25 15:27:22;;;;;;;1.27;1.17;;;;;;;;;;4998287;28;20218;-77
2021/06/25 15:30:28;;;;;;;1.30;1.20;;;;;;;;;;5015971;28;20206;-77
2021/06/25 15:33:32;;;;;;;1.70;1.60;;;;;;;;;;5016464;28;20201;-77
2021/06/25 15:36:36;;;;;;;1.87;1.43;;;;;;;;;;5015763;28;20201;-77
2021/06/25 15:39:40;;;;;;;1.60;1.50;;;;;;;;;;5015839;28;20628;-77
2021/06/25 15:42:44;;;;;;;3.33;1.87;;;;;;;;;;5016043;28;20621;-77
2021/06/25 15:45:48;;;;;;;2.10;1.60;;;;;;;;;;5015444;28;20173;-77
2021/06/25 15:48:53;;;;;;;1.77;1.60;;;;;;;;;;5015542;28;20221;-77
2021/06/25 15:51:57;;;;;;;1.90;1.63;;;;;;;;;;5015553;28;20209;-77
2021/06/25 15:55:00;;;;;;;2.53;1.90;;;;;;;;;;5016275;28;20197;-77
2021/06/25 15:58:05;;;;;;;1.83;1.63;;;;;;;;;;5015896;28;20221;-77
2021/06/25 16:01:10;;;;;;;2.53;1.73;;;;;;;;;;5015516;28;20193;-77
2021/06/25 16:04:14;;;;;;;1.90;1.60;;;;;;;;;;5016223;28;20625;-77
2021/06/25 16:07:18;;;;;;;2.53;2.10;;;;;;;;;;5016281;28;20675;-77
2021/06/25 16:10:24;;;;;;;2.40;2.20;;;;;;;;;;5003918;28;20209;-77
2021/06/25 16:13:30;;;;;;;7.90;3.77;;;;;;;;;;5015008;28;20178;-77
2021/06/25 16:16:36;;;;;;;3.13;2.43;;;;;;;;;;5015999;28;20174;-77
2021/06/25 16:19:40;;;;;;;3.07;2.10;;;;;;;;;;5016435;28;20182;-77
2021/06/25 16:22:44;;;;;;;6.27;3.67;;;;;;;;;;5014325;28;20208;-76
2021/06/25 16:25:49;;;;;;;2.27;2.00;;;;;;;;;;5001257;28;20198;-77
2021/06/25 16:28:53;;;;;;;3.90;2.10;;;;;;;;;;5013871;28;20217;-77
2021/06/25 16:31:57;;;;;;;2.43;2.20;;;;;;;;;;5014160;28;20217;-77
2021/06/25 16:35:02;;;;;;;3.90;2.03;;;;;;;;;;4995080;28;20201;-77
2021/06/25 16:38:08;;;;;;;2.40;2.20;;;;;;;;;;4995544;28;20221;-76
2021/06/25 16:41:12;;;;;;;2.70;2.20;;;;;;;;;;5007593;28;20182;-77
2021/06/25 16:44:16;;;;;;;2.00;1.80;;;;;;;;;;5015019;28;20193;-77
2021/06/25 16:47:20;;;;;;;2.40;2.00;;;;;;;;;;5013804;28;20221;-78
2021/06/25 16:50:24;;;;;;;3.50;2.00;;;;;;;;;;5015538;28;20216;-77
2021/06/25 16:53:28;;;;;;;3.70;2.20;;;;;;;;;;5019212;28;20200;-77
2021/06/25 16:56:32;;;;;;;4.20;3.20;;;;;;;;;;4995671;28;20177;-78
2021/06/25 16:59:37;;;;;;;7.80;2.53;;;;;;;;;;5010499;28;20731;-77
2021/06/25 17:02:41;;;;;;;3.80;2.40;;;;;;;;;;5010724;28;20198;-78
2021/06/25 17:05:46;;;;;;;4.50;2.50;;;;;;;;;;5010771;28;20732;-77
2021/06/25 17:08:50;;;;;;;4.07;2.30;;;;;;;;;;5010564;28;20566;-77
2021/06/25 17:11:54;;;;;;;4.83;3.20;;;;;;;;;;4998858;28;20205;-77
2021/06/25 17:14:59;;;;;;;11.27;2.87;;;;;;;;;;5009449;28;20193;-77
2021/06/25 17:18:05;;;;;;;2.73;2.20;;;;;;;;;;5010772;28;20221;-78
2021/06/25 17:21:09;;;;;;;3.93;2.87;;;;;;;;;;5009355;28;20200;-77
2021/06/25 17:24:13;;;;;;;3.17;2.47;;;;;;;;;;4979929;28;20182;-77
2021/06/25 17:27:20;;;;;;;4.30;2.70;;;;;;;;;;5009609;28;20221;-77
2021/06/25 17:30:24;;;;;;;2.60;2.40;;;;;;;;;;5010284;28;20181;-78
2021/06/25 17:33:29;;;;;;;16.03;3.73;;;;;;;;;;5010132;28;20185;-77
2021/06/25 17:36:33;;;;;;;4.93;2.57;;;;;;;;;;5009836;28;20185;-77
2021/06/25 17:39:37;;;;;;;3.90;2.50;;;;;;;;;;5010863;28;20185;-76
2021/06/25 17:42:43;;;;;;;4.70;2.53;;;;;;;;;;5010941;28;20185;-77
2021/06/25 17:45:47;;;;;;;5.07;2.23;;;;;;;;;;4991242;28;20210;-76
2021/06/25 17:48:51;;;;;;;3.47;2.60;;;;;;;;;;5010942;28;20224;-76
2021/06/25 17:51:56;;;;;;;3.03;2.53;;;;;;;;;;5011369;28;20204;-77
2021/06/25 17:55:00;;;;;;;3.77;2.43;;;;;;;;;;5010757;28;20189;-77
2021/06/25 17:58:04;;;;;;;2.97;2.67;;;;;;;;;;5011519;28;20737;-77
2021/06/25 18:01:08;;;;;;;6.57;2.47;;;;;;;;;;5010170;28;20633;-76
2021/06/25 18:04:12;;;;;;;7.87;2.67;;;;;;;;;;5010405;28;20684;-76
2021/06/25 18:07:16;;;;;;;3.80;2.67;;;;;;;;;;5014629;28;20212;-76
2021/06/25 18:10:21;;;;;;;6.87;2.93;;;;;;;;;;5013549;28;20189;-77
2021/06/25 18:13:25;;;;;;;5.17;2.60;;;;;;;;;;5013788;28;20189;-77
2021/06/25 18:16:29;;;;;;;3.53;2.53;;;;;;;;;;5013678;28;20197;-77
2021/06/25 18:19:33;;;;;;;7.77;3.00;;;;;;;;;;5012574;28;20296;-76
2021/06/25 18:22:38;;;;;;;2.67;2.37;;;;;;;;;;4992745;28;20385;-77
2021/06/25 18:25:42;;;;;;;4.70;2.43;;;;;;;;;;5011643;28;20209;-77
2021/06/25 18:28:47;;;;;;;3.47;2.40;;;;;;;;;;5012734;28;20217;-77
2021/06/25 18:31:50;;;;;;;3.70;2.57;;;;;;;;;;5012452;28;20225;-77
2021/06/25 18:34:55;;;;;;;2.90;2.40;;;;;;;;;;5013850;28;20205;-77
2021/06/25 18:37:59;;;;;;;3.87;2.23;;;;;;;;;;5013163;28;20209;-77
2021/06/25 18:41:03;;;;;;;7.43;2.83;;;;;;;;;;5013510;28;20170;-77
2021/06/25 18:44:07;;;;;;;5.13;2.90;;;;;;;;;;4994784;28;20193;-77
2021/06/25 18:47:12;;;;;;;4.33;2.93;;;;;;;;;;5012971;28;20221;-77
2021/06/25 18:50:17;;;;;;;4.27;2.90;;;;;;;;;;5013483;28;20181;-77